createdAt,value
2023-10-09T00:00:28.859Z,23.28
2023-10-09T00:01:00.502Z,23.29
2023-10-09T00:01:31.959Z,23.29
2023-10-09T00:02:03.556Z,23.30
2023-10-09T00:02:35.172Z,23.31
2023-10-09T00:03:06.769Z,23.31
2023-10-09T00:03:38.469Z,23.30
2023-10-09T00:04:10.125Z,23.31
2023-10-09T00:04:41.683Z,23.31
2023-10-09T00:05:13.171Z,23.31
2023-10-09T00:05:44.681Z,23.30
2023-10-09T00:06:16.222Z,23.29
2023-10-09T00:06:47.880Z,23.29
2023-10-09T00:07:19.484Z,23.31
2023-10-09T00:07:50.981Z,23.31
2023-10-09T00:08:22.418Z,23.31
2023-10-09T00:08:53.894Z,23.29
2023-10-09T00:09:25.446Z,23.29
2023-10-09T00:09:56.991Z,23.30
2023-10-09T00:10:28.433Z,23.28
2023-10-09T00:10:59.879Z,23.29
2023-10-09T00:11:31.452Z,23.27
2023-10-09T00:12:03.013Z,23.28
2023-10-09T00:12:34.481Z,23.29
2023-10-09T00:13:05.999Z,23.30
2023-10-09T00:13:37.487Z,23.29
2023-10-09T00:14:08.952Z,23.29
2023-10-09T00:14:40.394Z,23.30
2023-10-09T00:15:12.859Z,23.30
2023-10-09T00:15:44.440Z,23.30
2023-10-09T00:16:16.127Z,23.30
2023-10-09T00:16:47.702Z,23.29
2023-10-09T00:17:22.209Z,23.30
2023-10-09T00:17:54.654Z,23.30
2023-10-09T00:18:26.341Z,23.31
2023-10-09T00:18:57.815Z,23.31
2023-10-09T00:19:29.282Z,23.30
2023-10-09T00:20:00.871Z,23.31
2023-10-09T00:20:32.701Z,23.32
2023-10-09T00:21:06.960Z,23.31
2023-10-09T00:21:38.430Z,23.32
2023-10-09T00:22:09.889Z,23.31
2023-10-09T00:22:43.178Z,23.30
2023-10-09T00:23:14.612Z,23.30
2023-10-09T00:23:48.734Z,23.30
2023-10-09T00:24:20.203Z,23.31
2023-10-09T00:24:51.710Z,23.30
2023-10-09T00:25:23.279Z,23.30
2023-10-09T00:25:54.743Z,23.33
2023-10-09T00:26:31.039Z,23.33
2023-10-09T00:27:04.355Z,23.31
2023-10-09T00:27:35.840Z,23.30
2023-10-09T00:28:07.332Z,23.28
2023-10-09T00:28:38.758Z,23.29
2023-10-09T00:29:10.315Z,23.29
2023-10-09T00:29:41.706Z,23.29
2023-10-09T00:30:13.216Z,23.28
2023-10-09T00:30:47.909Z,23.29
2023-10-09T00:31:19.383Z,23.30
2023-10-09T00:31:50.840Z,23.29
2023-10-09T00:32:25.242Z,23.29
2023-10-09T00:32:56.748Z,23.29
2023-10-09T00:33:28.340Z,23.31
2023-10-09T00:33:59.923Z,23.29
2023-10-09T00:34:31.449Z,23.29
2023-10-09T00:35:02.920Z,23.29
2023-10-09T00:35:34.465Z,23.28
2023-10-09T00:36:06.048Z,23.29
2023-10-09T00:36:37.490Z,23.30
2023-10-09T00:37:08.993Z,23.27
2023-10-09T00:37:40.490Z,23.28
2023-10-09T00:38:11.912Z,23.29
2023-10-09T00:38:43.455Z,23.29
2023-10-09T00:39:14.962Z,23.30
2023-10-09T00:39:46.505Z,23.26
2023-10-09T00:40:20.572Z,23.28
2023-10-09T00:40:52.025Z,23.27
2023-10-09T00:41:23.586Z,23.29
2023-10-09T00:41:55.124Z,23.27
2023-10-09T00:42:28.179Z,23.28
2023-10-09T00:42:59.707Z,23.29
2023-10-09T00:43:31.388Z,23.29
2023-10-09T00:44:05.936Z,23.29
2023-10-09T00:44:37.409Z,23.30
2023-10-09T00:45:08.996Z,23.29
2023-10-09T00:45:40.504Z,23.28
2023-10-09T00:46:12.028Z,23.30
2023-10-09T00:46:43.533Z,23.29
2023-10-09T00:47:15.021Z,23.29
2023-10-09T00:47:46.484Z,23.27
2023-10-09T00:48:18.073Z,23.27
2023-10-09T00:48:49.705Z,23.26
2023-10-09T00:49:21.243Z,23.26
2023-10-09T00:49:52.697Z,23.26
2023-10-09T00:50:24.213Z,23.25
2023-10-09T00:50:55.672Z,23.24
2023-10-09T00:51:27.356Z,23.25
2023-10-09T00:51:58.833Z,23.25
2023-10-09T00:52:30.335Z,23.25
2023-10-09T00:53:03.873Z,23.25
2023-10-09T00:53:35.489Z,23.25
2023-10-09T00:54:07.039Z,23.25
2023-10-09T00:54:38.530Z,23.24
2023-10-09T00:55:09.990Z,23.25
2023-10-09T00:55:44.486Z,23.23
2023-10-09T00:56:15.966Z,23.23
2023-10-09T00:56:50.032Z,23.24
2023-10-09T00:57:21.582Z,23.24
2023-10-09T00:57:53.081Z,23.23
2023-10-09T00:58:24.688Z,23.22
2023-10-09T00:58:56.171Z,23.22
2023-10-09T00:59:27.709Z,23.22
2023-10-09T00:59:59.222Z,23.22
2023-10-09T01:00:30.769Z,23.23
2023-10-09T01:01:02.280Z,23.22
2023-10-09T01:01:33.780Z,23.22
2023-10-09T01:02:36.939Z,23.22
2023-10-09T01:03:08.559Z,23.22
2023-10-09T01:03:43.151Z,23.22
2023-10-09T01:04:14.950Z,23.24
2023-10-09T01:04:49.303Z,23.23
2023-10-09T01:05:20.918Z,23.21
2023-10-09T01:05:52.456Z,23.23
2023-10-09T01:06:24.028Z,23.23
2023-10-09T01:06:55.627Z,23.22
2023-10-09T01:07:28.095Z,23.22
2023-10-09T01:07:59.559Z,23.22
2023-10-09T01:08:31.097Z,23.22
2023-10-09T01:09:02.879Z,23.22
2023-10-09T01:09:34.415Z,23.23
2023-10-09T01:10:08.520Z,23.23
2023-10-09T01:10:39.959Z,23.23
2023-10-09T01:11:11.432Z,23.22
2023-10-09T01:11:42.875Z,23.22
2023-10-09T01:12:14.517Z,23.22
2023-10-09T01:12:46.066Z,23.24
2023-10-09T01:13:17.590Z,23.24
2023-10-09T01:13:49.048Z,23.24
2023-10-09T01:14:20.462Z,23.24
2023-10-09T01:14:51.912Z,23.24
2023-10-09T01:15:23.386Z,23.23
2023-10-09T01:15:54.882Z,23.23
2023-10-09T01:16:26.442Z,23.22
2023-10-09T01:16:57.971Z,23.23
2023-10-09T01:17:32.299Z,23.23
2023-10-09T01:18:03.916Z,23.22
2023-10-09T01:18:35.435Z,23.22
2023-10-09T01:19:09.741Z,23.23
2023-10-09T01:19:41.217Z,23.22
2023-10-09T01:20:12.653Z,23.23
2023-10-09T01:20:44.127Z,23.22
2023-10-09T01:21:18.350Z,23.23
2023-10-09T01:21:49.966Z,23.22
2023-10-09T01:22:21.421Z,23.23
2023-10-09T01:22:52.950Z,23.22
2023-10-09T01:23:24.444Z,23.22
2023-10-09T01:23:55.942Z,23.22
2023-10-09T01:24:27.427Z,23.23
2023-10-09T01:24:58.957Z,23.23
2023-10-09T01:25:30.429Z,23.21
2023-10-09T01:26:01.884Z,23.21
2023-10-09T01:26:33.325Z,23.22
2023-10-09T01:27:04.926Z,23.21
2023-10-09T01:27:36.392Z,23.21
2023-10-09T01:28:07.872Z,23.21
2023-10-09T01:28:39.454Z,23.21
2023-10-09T01:29:11.002Z,23.22
2023-10-09T01:29:42.437Z,23.22
2023-10-09T01:30:13.928Z,23.22
2023-10-09T01:30:45.379Z,23.23
2023-10-09T01:31:16.851Z,23.22
2023-10-09T01:31:51.017Z,23.22
2023-10-09T01:32:22.532Z,23.22
2023-10-09T01:32:54.009Z,23.22
2023-10-09T01:33:27.773Z,23.21
2023-10-09T01:33:59.419Z,23.20
2023-10-09T01:34:30.929Z,23.20
2023-10-09T01:35:02.439Z,23.20
2023-10-09T01:35:33.911Z,23.20
2023-10-09T01:36:05.394Z,23.21
2023-10-09T01:36:36.835Z,23.21
2023-10-09T01:37:11.269Z,23.20
2023-10-09T01:37:42.788Z,23.21
2023-10-09T01:38:14.253Z,23.21
2023-10-09T01:38:45.718Z,23.21
2023-10-09T01:39:17.178Z,23.21
2023-10-09T01:39:48.669Z,23.21
2023-10-09T01:40:20.133Z,23.22
2023-10-09T01:40:51.636Z,23.21
2023-10-09T01:41:23.075Z,23.20
2023-10-09T01:41:54.587Z,23.20
2023-10-09T01:42:26.112Z,23.21
2023-10-09T01:42:57.664Z,23.21
2023-10-09T01:43:29.169Z,23.20
2023-10-09T01:44:00.608Z,23.21
2023-10-09T01:44:32.087Z,23.20
2023-10-09T01:45:03.605Z,23.21
2023-10-09T01:45:35.108Z,23.21
2023-10-09T01:46:06.689Z,23.21
2023-10-09T01:46:38.180Z,23.21
2023-10-09T01:47:09.693Z,23.21
2023-10-09T01:47:41.268Z,23.21
2023-10-09T01:48:12.774Z,23.21
2023-10-09T01:48:44.466Z,23.22
2023-10-09T01:49:15.945Z,23.21
2023-10-09T01:49:47.440Z,23.21
2023-10-09T01:50:18.988Z,23.22
2023-10-09T01:50:50.450Z,23.21
2023-10-09T01:51:21.941Z,23.22
2023-10-09T01:51:53.419Z,23.22
2023-10-09T01:52:24.862Z,23.21
2023-10-09T01:52:56.412Z,23.20
2023-10-09T01:53:27.900Z,23.21
2023-10-09T01:53:59.391Z,23.21
2023-10-09T01:54:30.885Z,23.21
2023-10-09T01:55:02.344Z,23.21
2023-10-09T01:55:33.877Z,23.21
2023-10-09T01:56:05.368Z,23.21
2023-10-09T01:56:36.838Z,23.21
2023-10-09T01:57:08.377Z,23.21
2023-10-09T01:57:39.932Z,23.21
2023-10-09T01:58:11.411Z,23.21
2023-10-09T01:58:42.860Z,23.22
2023-10-09T01:59:14.362Z,23.21
2023-10-09T01:59:45.854Z,23.22
2023-10-09T02:00:17.318Z,23.21
2023-10-09T02:00:48.825Z,23.21
2023-10-09T02:01:20.293Z,23.21
2023-10-09T02:01:51.854Z,23.21
2023-10-09T02:02:23.322Z,23.21
2023-10-09T02:02:54.849Z,23.21
2023-10-09T02:03:26.679Z,23.21
2023-10-09T02:03:58.352Z,23.21
2023-10-09T02:04:32.684Z,23.21
2023-10-09T02:05:04.174Z,23.21
2023-10-09T02:05:35.645Z,23.20
2023-10-09T02:06:07.205Z,23.21
2023-10-09T02:06:38.713Z,23.20
2023-10-09T02:07:10.237Z,23.20
2023-10-09T02:07:41.780Z,23.20
2023-10-09T02:08:13.533Z,23.21
2023-10-09T02:08:45.070Z,23.21
2023-10-09T02:09:19.374Z,23.20
2023-10-09T02:09:50.870Z,23.21
2023-10-09T02:10:22.400Z,23.20
2023-10-09T02:10:53.828Z,23.20
2023-10-09T02:11:25.420Z,23.22
2023-10-09T02:11:57.013Z,23.21
2023-10-09T02:12:28.565Z,23.20
2023-10-09T02:13:00.068Z,23.21
2023-10-09T02:13:31.677Z,23.22
2023-10-09T02:14:05.441Z,23.22
2023-10-09T02:14:36.938Z,23.22
2023-10-09T02:15:08.451Z,23.20
2023-10-09T02:15:43.110Z,23.21
2023-10-09T02:16:14.687Z,23.20
2023-10-09T02:16:46.252Z,23.21
2023-10-09T02:17:17.701Z,23.21
2023-10-09T02:17:51.924Z,23.21
2023-10-09T02:18:23.648Z,23.21
2023-10-09T02:18:55.309Z,23.21
2023-10-09T02:19:26.939Z,23.21
2023-10-09T02:19:58.436Z,23.20
2023-10-09T02:20:29.932Z,23.21
2023-10-09T02:21:01.508Z,23.21
2023-10-09T02:21:32.979Z,23.20
2023-10-09T02:22:04.427Z,23.21
2023-10-09T02:22:35.862Z,23.22
2023-10-09T02:23:07.396Z,23.21
2023-10-09T02:23:38.857Z,23.22
2023-10-09T02:24:10.407Z,23.21
2023-10-09T02:24:44.306Z,23.21
2023-10-09T02:25:15.737Z,23.22
2023-10-09T02:25:47.218Z,23.23
2023-10-09T02:26:18.705Z,23.22
2023-10-09T02:26:50.194Z,23.22
2023-10-09T02:27:21.731Z,23.22
2023-10-09T02:27:53.227Z,23.23
2023-10-09T02:28:24.656Z,23.22
2023-10-09T02:28:56.049Z,23.24
2023-10-09T02:29:27.552Z,23.24
2023-10-09T02:30:01.608Z,23.24
2023-10-09T02:30:33.192Z,23.25
2023-10-09T02:31:04.683Z,23.24
2023-10-09T02:31:36.185Z,23.23
2023-10-09T02:32:10.529Z,23.22
2023-10-09T02:32:42.029Z,23.23
2023-10-09T02:33:13.531Z,23.22
2023-10-09T02:33:47.867Z,23.23
2023-10-09T02:34:19.392Z,23.23
2023-10-09T02:34:50.837Z,23.23
2023-10-09T02:35:22.296Z,23.24
2023-10-09T02:35:53.783Z,23.24
2023-10-09T02:36:25.436Z,23.24
2023-10-09T02:36:57.025Z,23.23
2023-10-09T02:37:28.570Z,23.24
2023-10-09T02:38:00.045Z,23.23
2023-10-09T02:38:31.498Z,23.24
2023-10-09T02:39:02.991Z,23.25
2023-10-09T02:39:34.527Z,23.23
2023-10-09T02:40:06.029Z,23.24
2023-10-09T02:40:37.479Z,23.24
2023-10-09T02:41:10.223Z,23.24
2023-10-09T02:41:41.723Z,23.24
2023-10-09T02:42:13.273Z,23.24
2023-10-09T02:42:45.050Z,23.21
2023-10-09T02:43:16.493Z,23.22
2023-10-09T02:43:47.953Z,23.22
2023-10-09T02:44:19.369Z,23.23
2023-10-09T02:44:51.019Z,23.22
2023-10-09T02:45:22.739Z,23.23
2023-10-09T02:45:54.296Z,23.23
2023-10-09T02:46:25.816Z,23.23
2023-10-09T02:46:57.379Z,23.22
2023-10-09T02:47:28.900Z,23.22
2023-10-09T02:48:00.499Z,23.23
2023-10-09T02:48:32.049Z,23.25
2023-10-09T02:49:03.494Z,23.23
2023-10-09T02:49:34.968Z,23.23
2023-10-09T02:50:08.567Z,23.22
2023-10-09T02:50:40.159Z,23.21
2023-10-09T02:51:11.659Z,23.21
2023-10-09T02:51:43.211Z,23.22
2023-10-09T02:52:14.725Z,23.21
2023-10-09T02:52:46.151Z,23.21
2023-10-09T02:53:17.569Z,23.21
2023-10-09T02:53:49.004Z,23.21
2023-10-09T02:54:20.656Z,23.21
2023-10-09T02:54:52.191Z,23.19
2023-10-09T02:55:23.728Z,23.20
2023-10-09T02:55:55.208Z,23.20
2023-10-09T02:56:29.260Z,23.20
2023-10-09T02:57:00.867Z,23.20
2023-10-09T02:57:32.488Z,23.20
2023-10-09T02:58:04.090Z,23.21
2023-10-09T02:58:35.565Z,23.21
2023-10-09T02:59:07.062Z,23.20
2023-10-09T02:59:38.622Z,23.21
2023-10-09T03:00:10.209Z,23.21
2023-10-09T03:00:41.828Z,23.20
2023-10-09T03:01:13.357Z,23.21
2023-10-09T03:01:44.836Z,23.20
2023-10-09T03:02:18.916Z,23.20
2023-10-09T03:02:50.369Z,23.20
2023-10-09T03:03:22.013Z,23.19
2023-10-09T03:03:53.645Z,23.20
2023-10-09T03:04:25.808Z,23.20
2023-10-09T03:04:57.393Z,23.19
2023-10-09T03:05:28.870Z,23.20
2023-10-09T03:06:00.426Z,23.20
2023-10-09T03:06:31.951Z,23.21
2023-10-09T03:07:03.513Z,23.21
2023-10-09T03:07:34.954Z,23.21
2023-10-09T03:08:09.426Z,23.21
2023-10-09T03:08:40.875Z,23.20
2023-10-09T03:09:12.397Z,23.21
2023-10-09T03:09:43.884Z,23.21
2023-10-09T03:10:15.434Z,23.22
2023-10-09T03:10:47.060Z,23.21
2023-10-09T03:11:18.563Z,23.21
2023-10-09T03:11:49.984Z,23.22
2023-10-09T03:12:21.493Z,23.22
2023-10-09T03:12:52.932Z,23.20
2023-10-09T03:13:24.442Z,23.20
2023-10-09T03:13:55.914Z,23.21
2023-10-09T03:14:27.460Z,23.21
2023-10-09T03:14:59.093Z,23.20
2023-10-09T03:15:30.636Z,23.21
2023-10-09T03:16:02.070Z,23.21
2023-10-09T03:16:33.525Z,23.20
2023-10-09T03:17:05.280Z,23.20
2023-10-09T03:17:36.991Z,23.21
2023-10-09T03:18:08.541Z,23.21
2023-10-09T03:18:40.103Z,23.21
2023-10-09T03:19:14.443Z,23.21
2023-10-09T03:19:45.917Z,23.20
2023-10-09T03:20:17.445Z,23.21
2023-10-09T03:20:48.971Z,23.21
2023-10-09T03:21:20.438Z,23.21
2023-10-09T03:21:51.945Z,23.22
2023-10-09T03:22:26.406Z,23.22
2023-10-09T03:22:59.683Z,23.21
2023-10-09T03:23:31.304Z,23.20
2023-10-09T03:24:02.835Z,23.20
2023-10-09T03:24:34.341Z,23.20
2023-10-09T03:25:05.762Z,23.19
2023-10-09T03:25:37.232Z,23.20
2023-10-09T03:26:21.041Z,23.19
2023-10-09T03:26:53.108Z,23.21
2023-10-09T03:27:24.652Z,23.19
2023-10-09T03:27:56.192Z,23.20
2023-10-09T03:28:27.922Z,23.20
2023-10-09T03:28:59.417Z,23.21
2023-10-09T03:29:32.428Z,23.20
2023-10-09T03:30:03.886Z,23.20
2023-10-09T03:30:35.374Z,23.20
2023-10-09T03:31:09.883Z,23.19
2023-10-09T03:31:41.369Z,23.19
2023-10-09T03:32:12.824Z,23.19
2023-10-09T03:32:44.359Z,23.20
2023-10-09T03:33:15.997Z,23.20
2023-10-09T03:33:47.555Z,23.20
2023-10-09T03:34:19.015Z,23.20
2023-10-09T03:34:50.518Z,23.20
2023-10-09T03:35:21.977Z,23.20
2023-10-09T03:35:56.375Z,23.20
2023-10-09T03:36:28.025Z,23.21
2023-10-09T03:36:59.528Z,23.22
2023-10-09T03:37:31.026Z,23.21
2023-10-09T03:38:02.624Z,23.21
2023-10-09T03:38:36.791Z,23.21
2023-10-09T03:39:08.256Z,23.21
2023-10-09T03:39:40.022Z,23.20
2023-10-09T03:40:11.688Z,23.22
2023-10-09T03:40:43.141Z,23.21
2023-10-09T03:41:17.102Z,23.22
2023-10-09T03:41:52.014Z,23.22
2023-10-09T03:42:23.931Z,23.21
2023-10-09T03:42:58.551Z,23.20
2023-10-09T03:43:31.652Z,23.20
2023-10-09T03:44:03.092Z,23.19
2023-10-09T03:44:34.570Z,23.20
2023-10-09T03:45:06.054Z,23.21
2023-10-09T03:45:37.508Z,23.20
2023-10-09T03:46:09.052Z,23.21
2023-10-09T03:46:40.611Z,23.21
2023-10-09T03:47:14.536Z,23.21
2023-10-09T03:47:45.975Z,23.21
2023-10-09T03:48:20.319Z,23.21
2023-10-09T03:48:51.863Z,23.20
2023-10-09T03:49:23.389Z,23.19
2023-10-09T03:49:55.521Z,23.20
2023-10-09T03:50:27.242Z,23.20
2023-10-09T03:51:01.834Z,23.20
2023-10-09T03:51:33.419Z,23.20
2023-10-09T03:52:04.994Z,23.21
2023-10-09T03:52:36.454Z,23.20
2023-10-09T03:53:07.973Z,23.19
2023-10-09T03:53:39.530Z,23.17
2023-10-09T03:54:11.201Z,23.19
2023-10-09T03:54:42.784Z,23.20
2023-10-09T03:55:14.345Z,23.20
2023-10-09T03:55:45.799Z,23.20
2023-10-09T03:56:17.285Z,23.20
2023-10-09T03:56:48.751Z,23.20
2023-10-09T03:57:22.071Z,23.20
2023-10-09T03:57:53.558Z,23.20
2023-10-09T03:58:25.039Z,23.19
2023-10-09T03:58:56.446Z,23.20
2023-10-09T03:59:27.863Z,23.20
2023-10-09T03:59:59.528Z,23.20
2023-10-09T04:00:31.243Z,23.20
2023-10-09T04:01:02.845Z,23.21
2023-10-09T04:01:34.400Z,23.21
2023-10-09T04:02:06.088Z,23.22
2023-10-09T04:02:37.655Z,23.22
2023-10-09T04:03:09.324Z,23.21
2023-10-09T04:03:41.017Z,23.22
2023-10-09T04:04:12.646Z,23.21
2023-10-09T04:04:44.260Z,23.21
2023-10-09T04:05:15.758Z,23.22
2023-10-09T04:05:47.287Z,23.22
2023-10-09T04:06:18.899Z,23.21
2023-10-09T04:06:50.346Z,23.20
2023-10-09T04:07:21.982Z,23.20
2023-10-09T04:07:53.386Z,23.21
2023-10-09T04:08:27.811Z,23.21
2023-10-09T04:08:59.313Z,23.21
2023-10-09T04:09:30.857Z,23.20
2023-10-09T04:10:02.454Z,23.20
2023-10-09T04:10:34.012Z,23.20
2023-10-09T04:11:05.644Z,23.19
2023-10-09T04:11:37.200Z,23.22
2023-10-09T04:12:08.651Z,23.20
2023-10-09T04:12:42.694Z,23.21
2023-10-09T04:13:14.197Z,23.20
2023-10-09T04:13:45.647Z,23.21
2023-10-09T04:14:17.130Z,23.19
2023-10-09T04:14:48.642Z,23.21
2023-10-09T04:15:20.138Z,23.21
2023-10-09T04:15:51.652Z,23.21
2023-10-09T04:16:25.597Z,23.21
2023-10-09T04:16:57.204Z,23.21
2023-10-09T04:17:28.697Z,23.21
2023-10-09T04:18:00.307Z,23.20
2023-10-09T04:18:31.866Z,23.20
2023-10-09T04:19:03.452Z,23.20
2023-10-09T04:19:35.011Z,23.21
2023-10-09T04:20:06.541Z,23.22
2023-10-09T04:20:38.067Z,23.22
2023-10-09T04:21:12.265Z,23.21
2023-10-09T04:21:43.746Z,23.21
2023-10-09T04:22:15.258Z,23.21
2023-10-09T04:22:46.737Z,23.20
2023-10-09T04:23:18.211Z,23.19
2023-10-09T04:23:49.629Z,23.19
2023-10-09T04:24:21.080Z,23.19
2023-10-09T04:24:52.580Z,23.20
2023-10-09T04:25:24.166Z,23.21
2023-10-09T04:25:55.649Z,23.20
2023-10-09T04:26:30.349Z,23.19
2023-10-09T04:27:02.056Z,23.21
2023-10-09T04:27:33.556Z,23.22
2023-10-09T04:28:05.025Z,23.23
2023-10-09T04:28:36.492Z,23.22
2023-10-09T04:29:07.986Z,23.22
2023-10-09T04:29:39.443Z,23.23
2023-10-09T04:30:10.947Z,23.22
2023-10-09T04:30:42.549Z,23.21
2023-10-09T04:31:14.073Z,23.22
2023-10-09T04:31:45.653Z,23.21
2023-10-09T04:32:19.107Z,23.21
2023-10-09T04:32:51.127Z,23.21
2023-10-09T04:33:24.993Z,23.19
2023-10-09T04:33:56.484Z,23.20
2023-10-09T04:34:27.991Z,23.20
2023-10-09T04:34:59.447Z,23.20
2023-10-09T04:35:30.884Z,23.21
2023-10-09T04:36:02.638Z,23.21
2023-10-09T04:36:34.188Z,23.21
2023-10-09T04:37:05.696Z,23.22
2023-10-09T04:37:37.192Z,23.20
2023-10-09T04:38:08.633Z,23.21
2023-10-09T04:38:40.109Z,23.22
2023-10-09T04:39:11.644Z,23.23
2023-10-09T04:39:43.155Z,23.22
2023-10-09T04:40:14.638Z,23.24
2023-10-09T04:40:46.089Z,23.22
2023-10-09T04:41:17.667Z,23.23
2023-10-09T04:41:49.135Z,23.22
2023-10-09T04:42:20.657Z,23.22
2023-10-09T04:42:52.220Z,23.22
2023-10-09T04:43:23.768Z,23.22
2023-10-09T04:43:58.131Z,23.21
2023-10-09T04:44:29.571Z,23.22
2023-10-09T04:45:04.058Z,23.21
2023-10-09T04:45:35.661Z,23.21
2023-10-09T04:46:07.204Z,23.20
2023-10-09T04:46:38.817Z,23.21
2023-10-09T04:47:14.956Z,23.20
2023-10-09T04:47:46.895Z,23.20
2023-10-09T04:48:19.989Z,23.20
2023-10-09T04:48:51.480Z,23.20
2023-10-09T04:49:23.038Z,23.20
2023-10-09T04:49:54.519Z,23.20
2023-10-09T04:50:25.956Z,23.20
2023-10-09T04:50:57.448Z,23.20
2023-10-09T04:51:31.524Z,23.21
2023-10-09T04:52:02.981Z,23.21
2023-10-09T04:52:35.125Z,23.20
2023-10-09T04:53:07.408Z,23.21
2023-10-09T04:53:38.929Z,23.21
2023-10-09T04:54:10.404Z,23.19
2023-10-09T04:54:41.926Z,23.21
2023-10-09T04:55:13.487Z,23.21
2023-10-09T04:55:45.016Z,23.21
2023-10-09T04:56:18.270Z,23.20
2023-10-09T04:56:49.752Z,23.20
2023-10-09T04:57:21.277Z,23.20
2023-10-09T04:57:52.690Z,23.21
2023-10-09T04:58:24.247Z,23.21
2023-10-09T04:58:55.703Z,23.22
2023-10-09T04:59:27.247Z,23.20
2023-10-09T04:59:58.769Z,23.20
2023-10-09T05:00:30.312Z,23.21
2023-10-09T05:01:01.851Z,23.20
2023-10-09T05:01:35.247Z,23.21
2023-10-09T05:02:06.712Z,23.20
2023-10-09T05:02:38.303Z,23.20
2023-10-09T05:03:09.853Z,23.21
2023-10-09T05:03:41.375Z,23.21
2023-10-09T05:04:13.086Z,23.20
2023-10-09T05:04:44.691Z,23.21
2023-10-09T05:05:16.128Z,23.21
2023-10-09T05:05:47.613Z,23.21
2023-10-09T05:06:19.098Z,23.21
2023-10-09T05:06:50.594Z,23.20
2023-10-09T05:07:22.102Z,23.21
2023-10-09T05:07:53.607Z,23.20
2023-10-09T05:08:27.621Z,23.20
2023-10-09T05:08:59.168Z,23.21
2023-10-09T05:09:30.662Z,23.21
2023-10-09T05:10:02.227Z,23.21
2023-10-09T05:10:33.656Z,23.21
2023-10-09T05:11:05.171Z,23.21
2023-10-09T05:11:36.674Z,23.21
2023-10-09T05:12:08.243Z,23.22
2023-10-09T05:12:39.745Z,23.21
2023-10-09T05:13:11.316Z,23.22
2023-10-09T05:13:43.575Z,23.21
2023-10-09T05:14:15.260Z,23.22
2023-10-09T05:14:46.726Z,23.21
2023-10-09T05:15:18.197Z,23.20
2023-10-09T05:15:49.731Z,23.21
2023-10-09T05:16:21.328Z,23.22
2023-10-09T05:16:52.839Z,23.21
2023-10-09T05:17:24.261Z,23.22
2023-10-09T05:17:55.873Z,23.21
2023-10-09T05:18:27.424Z,23.22
2023-10-09T05:18:59.380Z,23.20
2023-10-09T05:19:30.844Z,23.20
2023-10-09T05:20:02.299Z,23.21
2023-10-09T05:20:33.819Z,23.21
2023-10-09T05:21:06.201Z,23.20
2023-10-09T05:21:40.415Z,23.20
2023-10-09T05:22:11.929Z,23.21
2023-10-09T05:22:43.415Z,23.19
2023-10-09T05:23:14.918Z,23.20
2023-10-09T05:23:52.036Z,23.20
2023-10-09T05:24:23.493Z,23.19
2023-10-09T05:24:54.991Z,23.19
2023-10-09T05:25:29.502Z,23.20
2023-10-09T05:26:03.882Z,23.20
2023-10-09T05:26:35.372Z,23.19
2023-10-09T05:27:06.843Z,23.19
2023-10-09T05:27:38.350Z,23.19
2023-10-09T05:28:09.827Z,23.20
2023-10-09T05:28:41.349Z,23.20
2023-10-09T05:29:13.103Z,23.20
2023-10-09T05:29:44.712Z,23.21
2023-10-09T05:30:16.324Z,23.21
2023-10-09T05:30:47.842Z,23.21
2023-10-09T05:31:19.389Z,23.21
2023-10-09T05:31:50.921Z,23.22
2023-10-09T05:32:22.448Z,23.24
2023-10-09T05:32:53.928Z,23.22
2023-10-09T05:33:25.467Z,23.23
2023-10-09T05:33:57.239Z,23.22
2023-10-09T05:34:28.758Z,23.21
2023-10-09T05:35:00.433Z,23.20
2023-10-09T05:35:32.017Z,23.20
2023-10-09T05:36:03.528Z,23.20
2023-10-09T05:36:35.124Z,23.21
2023-10-09T05:37:06.654Z,23.20
2023-10-09T05:37:38.157Z,23.20
2023-10-09T05:38:12.509Z,23.20
2023-10-09T05:38:43.974Z,23.21
2023-10-09T05:39:16.272Z,23.21
2023-10-09T05:39:48.092Z,23.21
2023-10-09T05:40:19.689Z,23.21
2023-10-09T05:40:51.225Z,23.21
2023-10-09T05:41:22.681Z,23.21
2023-10-09T05:41:54.123Z,23.21
2023-10-09T05:42:25.634Z,23.20
2023-10-09T05:42:57.107Z,23.20
2023-10-09T05:43:28.608Z,23.20
2023-10-09T05:44:00.124Z,23.20
2023-10-09T05:44:31.613Z,23.20
2023-10-09T05:45:03.282Z,23.20
2023-10-09T05:45:34.806Z,23.19
2023-10-09T05:46:06.346Z,23.20
2023-10-09T05:46:37.917Z,23.20
2023-10-09T05:47:09.441Z,23.20
2023-10-09T05:47:40.882Z,23.21
2023-10-09T05:48:12.383Z,23.20
2023-10-09T05:48:44.041Z,23.19
2023-10-09T05:49:15.758Z,23.20
2023-10-09T05:49:47.457Z,23.19
2023-10-09T05:50:19.062Z,23.20
2023-10-09T05:50:50.538Z,23.20
2023-10-09T05:51:21.985Z,23.20
2023-10-09T05:51:53.467Z,23.19
2023-10-09T05:52:25.018Z,23.20
2023-10-09T05:52:56.466Z,23.20
2023-10-09T05:53:27.922Z,23.20
2023-10-09T05:53:59.406Z,23.19
2023-10-09T05:54:30.852Z,23.19
2023-10-09T05:55:02.522Z,23.20
2023-10-09T05:55:33.967Z,23.19
2023-10-09T05:56:05.456Z,23.19
2023-10-09T05:56:36.851Z,23.19
2023-10-09T05:57:08.287Z,23.19
2023-10-09T05:57:39.820Z,23.19
2023-10-09T05:58:11.391Z,23.19
2023-10-09T05:58:42.867Z,23.20
2023-10-09T05:59:14.478Z,23.19
2023-10-09T05:59:46.086Z,23.19
2023-10-09T06:00:23.252Z,23.19
2023-10-09T06:00:54.694Z,23.19
2023-10-09T06:01:26.145Z,23.19
2023-10-09T06:01:57.683Z,23.19
2023-10-09T06:02:29.239Z,23.19
2023-10-09T06:03:02.658Z,23.19
2023-10-09T06:03:34.468Z,23.19
2023-10-09T06:04:06.191Z,23.19
2023-10-09T06:04:37.856Z,23.19
2023-10-09T06:05:09.495Z,23.19
2023-10-09T06:05:41.106Z,23.19
2023-10-09T06:06:12.648Z,23.19
2023-10-09T06:06:47.401Z,23.19
2023-10-09T06:07:19.060Z,23.19
2023-10-09T06:07:50.643Z,23.17
2023-10-09T06:08:22.139Z,23.18
2023-10-09T06:08:53.566Z,23.19
2023-10-09T06:09:25.192Z,23.19
2023-10-09T06:09:58.389Z,23.20
2023-10-09T06:10:30.490Z,23.19
2023-10-09T06:11:01.954Z,23.18
2023-10-09T06:11:35.641Z,23.19
2023-10-09T06:12:07.352Z,23.19
2023-10-09T06:12:39.047Z,23.19
2023-10-09T06:13:10.572Z,23.19
2023-10-09T06:13:43.740Z,23.19
2023-10-09T06:14:18.055Z,23.18
2023-10-09T06:14:49.530Z,23.19
2023-10-09T06:15:21.142Z,23.18
2023-10-09T06:15:52.811Z,23.19
2023-10-09T06:16:24.400Z,23.18
2023-10-09T06:16:55.897Z,23.19
2023-10-09T06:17:27.346Z,23.18
2023-10-09T06:17:58.892Z,23.19
2023-10-09T06:18:30.415Z,23.19
2023-10-09T06:19:01.928Z,23.19
2023-10-09T06:19:33.375Z,23.19
2023-10-09T06:20:04.822Z,23.20
2023-10-09T06:20:36.299Z,23.18
2023-10-09T06:21:07.883Z,23.19
2023-10-09T06:21:39.442Z,23.19
2023-10-09T06:22:10.891Z,23.19
2023-10-09T06:22:42.388Z,23.19
2023-10-09T06:23:13.997Z,23.19
2023-10-09T06:23:45.436Z,23.19
2023-10-09T06:24:17.114Z,23.20
2023-10-09T06:24:49.067Z,23.20
2023-10-09T06:25:20.549Z,23.20
2023-10-09T06:25:52.062Z,23.19
2023-10-09T06:26:24.446Z,23.19
2023-10-09T06:26:55.948Z,23.19
2023-10-09T06:27:27.464Z,23.19
2023-10-09T06:27:58.995Z,23.20
2023-10-09T06:28:30.420Z,23.20
2023-10-09T06:29:04.783Z,23.19
2023-10-09T06:29:36.312Z,23.19
2023-10-09T06:30:07.941Z,23.19
2023-10-09T06:30:39.646Z,23.19
2023-10-09T06:31:13.461Z,23.19
2023-10-09T06:31:45.016Z,23.19
2023-10-09T06:32:16.505Z,23.20
2023-10-09T06:32:48.037Z,23.20
2023-10-09T06:33:19.569Z,23.19
2023-10-09T06:33:51.102Z,23.20
2023-10-09T06:34:22.572Z,23.20
2023-10-09T06:34:54.039Z,23.20
2023-10-09T06:35:25.537Z,23.20
2023-10-09T06:35:59.641Z,23.20
2023-10-09T06:36:31.185Z,23.21
2023-10-09T06:37:02.769Z,23.19
2023-10-09T06:37:34.267Z,23.19
2023-10-09T06:38:05.734Z,23.19
2023-10-09T06:38:37.166Z,23.20
2023-10-09T06:39:08.793Z,23.19
2023-10-09T06:39:40.352Z,23.19
2023-10-09T06:40:11.842Z,23.21
2023-10-09T06:40:43.287Z,23.21
2023-10-09T06:41:14.757Z,23.21
2023-10-09T06:41:46.178Z,23.21
2023-10-09T06:42:20.440Z,23.20
2023-10-09T06:42:51.969Z,23.19
2023-10-09T06:43:23.402Z,23.20
2023-10-09T06:43:54.855Z,23.18
2023-10-09T06:44:26.373Z,23.19
2023-10-09T06:44:57.895Z,23.19
2023-10-09T06:45:29.401Z,23.19
2023-10-09T06:46:00.877Z,23.17
2023-10-09T06:46:32.335Z,23.20
2023-10-09T06:47:03.844Z,23.17
2023-10-09T06:47:38.359Z,23.19
2023-10-09T06:48:09.933Z,23.19
2023-10-09T06:48:41.450Z,23.20
2023-10-09T06:49:12.911Z,23.17
2023-10-09T06:49:44.332Z,23.19
2023-10-09T06:50:16.062Z,23.19
2023-10-09T06:50:47.511Z,23.20